sensor_id;sensor_type;location;lat;lon;timestamp;pressure;altitude;pressure_sealevel;temperature;humidity
5574;BME280;2563;52.242;7.956;2023-09-30T00:00:42;101974.84;;;11.47;100.00
5574;BME280;2563;52.242;7.956;2023-09-30T00:03:08;101979.13;;;11.46;100.00
5574;BME280;2563;52.242;7.956;2023-09-30T00:05:33;101983.47;;;11.43;100.00
5574;BME280;2563;52.242;7.956;2023-09-30T00:07:58;101980.88;;;11.41;100.00
5574;BME280;2563;52.242;7.956;2023-09-30T00:10:24;101986.88;;;11.43;100.00
5574;BME280;2563;52.242;7.956;2023-09-30T00:12:49;101991.22;;;11.40;100.00
5574;BME280;2563;52.242;7.956;2023-09-30T00:15:14;101992.91;;;11.39;100.00
5574;BME280;2563;52.242;7.956;2023-09-30T00:17:40;101997.25;;;11.29;100.00
5574;BME280;2563;52.242;7.956;2023-09-30T00:20:05;102006.72;;;11.31;100.00
5574;BME280;2563;52.242;7.956;2023-09-30T00:22:32;102010.97;;;11.35;100.00
5574;BME280;2563;52.242;7.956;2023-09-30T00:24:58;101990.38;;;11.33;100.00
5574;BME280;2563;52.242;7.956;2023-09-30T00:27:23;102003.25;;;11.38;100.00
5574;BME280;2563;52.242;7.956;2023-09-30T00:29:48;102007.53;;;11.45;100.00
5574;BME280;2563;52.242;7.956;2023-09-30T00:32:14;102004.09;;;11.40;100.00
5574;BME280;2563;52.242;7.956;2023-09-30T00:34:39;102015.25;;;11.42;100.00
5574;BME280;2563;52.242;7.956;2023-09-30T00:37:05;102019.56;;;11.40;100.00
5574;BME280;2563;52.242;7.956;2023-09-30T00:39:32;102028.16;;;11.37;100.00
5574;BME280;2563;52.242;7.956;2023-09-30T00:41:58;102025.63;;;11.33;100.00
5574;BME280;2563;52.242;7.956;2023-09-30T00:44:27;102009.28;;;11.32;100.00
5574;BME280;2563;52.242;7.956;2023-09-30T00:46:54;102016.97;;;11.43;100.00
5574;BME280;2563;52.242;7.956;2023-09-30T00:49:21;102007.53;;;11.39;100.00
5574;BME280;2563;52.242;7.956;2023-09-30T00:51:48;101980.84;;;11.50;100.00
5574;BME280;2563;52.242;7.956;2023-09-30T00:54:15;101931.03;;;11.45;100.00
5574;BME280;2563;52.242;7.956;2023-09-30T00:56:44;101913.84;;;11.43;100.00
5574;BME280;2563;52.242;7.956;2023-09-30T00:59:11;101908.69;;;11.41;100.00
5574;BME280;2563;52.242;7.956;2023-09-30T01:01:37;101880.34;;;11.37;100.00
5574;BME280;2563;52.242;7.956;2023-09-30T01:04:02;101839.06;;;11.43;100.00
5574;BME280;2563;52.242;7.956;2023-09-30T01:06:28;101825.31;;;11.45;100.00
5574;BME280;2563;52.242;7.956;2023-09-30T01:08:53;101834.75;;;11.46;100.00
5574;BME280;2563;52.242;7.956;2023-09-30T01:11:20;101840.78;;;11.47;100.00
5574;BME280;2563;52.242;7.956;2023-09-30T01:13:46;101839.84;;;11.51;100.00
5574;BME280;2563;52.242;7.956;2023-09-30T01:16:13;101850.19;;;11.53;100.00
5574;BME280;2563;52.242;7.956;2023-09-30T01:18:39;101849.28;;;11.57;100.00
5574;BME280;2563;52.242;7.956;2023-09-30T01:21:08;101857.00;;;11.61;100.00
5574;BME280;2563;52.242;7.956;2023-09-30T01:23:34;101858.69;;;11.61;100.00
5574;BME280;2563;52.242;7.956;2023-09-30T01:26:05;101872.41;;;11.69;100.00
5574;BME280;2563;52.242;7.956;2023-09-30T01:28:32;101875.00;;;11.69;100.00
5574;BME280;2563;52.242;7.956;2023-09-30T01:30:57;101868.13;;;11.66;100.00
5574;BME280;2563;52.242;7.956;2023-09-30T01:33:23;101882.72;;;11.67;100.00
5574;BME280;2563;52.242;7.956;2023-09-30T01:35:48;101885.25;;;11.77;100.00
5574;BME280;2563;52.242;7.956;2023-09-30T01:38:14;101899.91;;;11.71;100.00
5574;BME280;2563;52.242;7.956;2023-09-30T01:40:39;101899.84;;;11.78;100.00
5574;BME280;2563;52.242;7.956;2023-09-30T01:43:05;101902.47;;;11.71;100.00
5574;BME280;2563;52.242;7.956;2023-09-30T01:45:30;101904.25;;;11.66;100.00
5574;BME280;2563;52.242;7.956;2023-09-30T01:47:55;101906.78;;;11.68;100.00
5574;BME280;2563;52.242;7.956;2023-09-30T01:50:21;101916.22;;;11.74;100.00
5574;BME280;2563;52.242;7.956;2023-09-30T01:52:46;101923.94;;;11.75;100.00
5574;BME280;2563;52.242;7.956;2023-09-30T01:55:11;101929.09;;;11.75;100.00
5574;BME280;2563;52.242;7.956;2023-09-30T01:57:37;101939.41;;;11.77;100.00
5574;BME280;2563;52.242;7.956;2023-09-30T02:00:03;101946.28;;;11.79;100.00
5574;BME280;2563;52.242;7.956;2023-09-30T02:02:30;101948.00;;;11.77;100.00
5574;BME280;2563;52.242;7.956;2023-09-30T02:04:55;101952.31;;;11.77;100.00
5574;BME280;2563;52.242;7.956;2023-09-30T02:07:22;101947.19;;;11.74;100.00
5574;BME280;2563;52.242;7.956;2023-09-30T02:09:47;101957.47;;;11.77;100.00
5574;BME280;2563;52.242;7.956;2023-09-30T02:12:13;101953.22;;;11.71;100.00
5574;BME280;2563;52.242;7.956;2023-09-30T02:14:39;101953.22;;;11.71;100.00
5574;BME280;2563;52.242;7.956;2023-09-30T02:17:04;101958.41;;;11.66;100.00
5574;BME280;2563;52.242;7.956;2023-09-30T02:19:29;101976.44;;;11.69;100.00
5574;BME280;2563;52.242;7.956;2023-09-30T02:21:56;101974.72;;;11.65;100.00
5574;BME280;2563;52.242;7.956;2023-09-30T02:24:22;101961.00;;;11.63;100.00
5574;BME280;2563;52.242;7.956;2023-09-30T02:26:48;101965.28;;;11.67;100.00
5574;BME280;2563;52.242;7.956;2023-09-30T02:29:13;101962.72;;;11.64;100.00
5574;BME280;2563;52.242;7.956;2023-09-30T02:31:39;101970.44;;;11.63;100.00
5574;BME280;2563;52.242;7.956;2023-09-30T02:34:06;101975.63;;;11.61;100.00
5574;BME280;2563;52.242;7.956;2023-09-30T02:36:32;101977.34;;;11.62;100.00
5574;BME280;2563;52.242;7.956;2023-09-30T02:38:58;101980.78;;;11.58;100.00
5574;BME280;2563;52.242;7.956;2023-09-30T02:41:24;101984.22;;;11.60;100.00
5574;BME280;2563;52.242;7.956;2023-09-30T02:43:50;101989.38;;;11.59;100.00
5574;BME280;2563;52.242;7.956;2023-09-30T02:46:15;101994.59;;;11.54;100.00
5574;BME280;2563;52.242;7.956;2023-09-30T02:48:40;101994.59;;;11.49;100.00
5574;BME280;2563;52.242;7.956;2023-09-30T02:51:10;101940.47;;;11.42;100.00
5574;BME280;2563;52.242;7.956;2023-09-30T02:53:36;101978.31;;;11.40;100.00
5574;BME280;2563;52.242;7.956;2023-09-30T02:56:01;101979.16;;;11.43;100.00
5574;BME280;2563;52.242;7.956;2023-09-30T02:58:27;101980.00;;;11.44;100.00
5574;BME280;2563;52.242;7.956;2023-09-30T03:00:54;101987.75;;;11.39;100.00
5574;BME280;2563;52.242;7.956;2023-09-30T03:03:19;101996.31;;;11.44;100.00
5574;BME280;2563;52.242;7.956;2023-09-30T03:05:45;101991.16;;;11.44;100.00
5574;BME280;2563;52.242;7.956;2023-09-30T03:08:10;101994.66;;;11.40;100.00
5574;BME280;2563;52.242;7.956;2023-09-30T03:10:36;101997.25;;;11.36;100.00
5574;BME280;2563;52.242;7.956;2023-09-30T03:13:05;101994.66;;;11.34;100.00
5574;BME280;2563;52.242;7.956;2023-09-30T03:15:32;102001.53;;;11.35;100.00
5574;BME280;2563;52.242;7.956;2023-09-30T03:17:58;102012.72;;;11.33;100.00
5574;BME280;2563;52.242;7.956;2023-09-30T03:20:25;102015.31;;;11.31;100.00
5574;BME280;2563;52.242;7.956;2023-09-30T03:22:51;102026.44;;;11.35;100.00
5574;BME280;2563;52.242;7.956;2023-09-30T03:25:18;102036.75;;;11.35;100.00
5574;BME280;2563;52.242;7.956;2023-09-30T03:27:44;102039.34;;;11.36;100.00
5574;BME280;2563;52.242;7.956;2023-09-30T03:30:12;102052.22;;;11.41;100.00
5574;BME280;2563;52.242;7.956;2023-09-30T03:32:38;102055.69;;;11.40;100.00
5574;BME280;2563;52.242;7.956;2023-09-30T03:35:08;102051.34;;;11.42;100.00
5574;BME280;2563;52.242;7.956;2023-09-30T03:37:36;102062.50;;;11.44;100.00
5574;BME280;2563;52.242;7.956;2023-09-30T03:40:02;102056.47;;;11.53;100.00
5574;BME280;2563;52.242;7.956;2023-09-30T03:42:37;102063.34;;;11.50;100.00
5574;BME280;2563;52.242;7.956;2023-09-30T03:45:05;102064.22;;;11.48;100.00
5574;BME280;2563;52.242;7.956;2023-09-30T03:47:34;102065.09;;;11.47;100.00
5574;BME280;2563;52.242;7.956;2023-09-30T03:49:59;102067.69;;;11.41;100.00
5574;BME280;2563;52.242;7.956;2023-09-30T03:52:24;102069.41;;;11.39;100.00
5574;BME280;2563;52.242;7.956;2023-09-30T03:54:51;102057.41;;;11.33;100.00
5574;BME280;2563;52.242;7.956;2023-09-30T03:57:18;102039.38;;;11.30;100.00
5574;BME280;2563;52.242;7.956;2023-09-30T03:59:43;102047.09;;;11.32;100.00
5574;BME280;2563;52.242;7.956;2023-09-30T04:02:11;102030.78;;;11.33;100.00
5574;BME280;2563;52.242;7.956;2023-09-30T04:04:36;102045.38;;;11.34;100.00
5574;BME280;2563;52.242;7.956;2023-09-30T04:07:02;102040.22;;;11.34;100.00
5574;BME280;2563;52.242;7.956;2023-09-30T04:09:32;102041.91;;;11.35;100.00
5574;BME280;2563;52.242;7.956;2023-09-30T04:11:58;102046.22;;;11.39;100.00
5574;BME280;2563;52.242;7.956;2023-09-30T04:14:23;102033.34;;;11.29;100.00
5574;BME280;2563;52.242;7.956;2023-09-30T04:16:50;102025.63;;;11.28;100.00
5574;BME280;2563;52.242;7.956;2023-09-30T04:19:15;102023.91;;;11.27;100.00
5574;BME280;2563;52.242;7.956;2023-09-30T04:21:41;102004.13;;;11.27;100.00
5574;BME280;2563;52.242;7.956;2023-09-30T04:24:06;102002.44;;;11.26;100.00
5574;BME280;2563;52.242;7.956;2023-09-30T04:26:32;101998.13;;;11.22;100.00
5574;BME280;2563;52.242;7.956;2023-09-30T04:28:58;102024.78;;;11.21;100.00
5574;BME280;2563;52.242;7.956;2023-09-30T04:31:23;102026.50;;;11.19;100.00
5574;BME280;2563;52.242;7.956;2023-09-30T04:33:49;102034.25;;;11.21;100.00
5574;BME280;2563;52.242;7.956;2023-09-30T04:36:19;102029.97;;;11.17;100.00
5574;BME280;2563;52.242;7.956;2023-09-30T04:38:44;102031.66;;;11.13;100.00
5574;BME280;2563;52.242;7.956;2023-09-30T04:41:09;102045.44;;;11.18;100.00
5574;BME280;2563;52.242;7.956;2023-09-30T04:43:35;102053.16;;;11.18;100.00
5574;BME280;2563;52.242;7.956;2023-09-30T04:46:04;102052.31;;;11.16;100.00
5574;BME280;2563;52.242;7.956;2023-09-30T04:48:29;101998.19;;;11.12;100.00
5574;BME280;2563;52.242;7.956;2023-09-30T04:50:55;102050.56;;;11.21;100.00
5574;BME280;2563;52.242;7.956;2023-09-30T04:53:20;102069.47;;;11.23;100.00
5574;BME280;2563;52.242;7.956;2023-09-30T04:55:46;102069.47;;;11.17;100.00
5574;BME280;2563;52.242;7.956;2023-09-30T04:58:13;102077.19;;;11.22;100.00
5574;BME280;2563;52.242;7.956;2023-09-30T05:00:38;102080.63;;;11.19;100.00
5574;BME280;2563;52.242;7.956;2023-09-30T05:03:04;102090.09;;;11.23;100.00
5574;BME280;2563;52.242;7.956;2023-09-30T05:05:30;102088.34;;;11.28;100.00
5574;BME280;2563;52.242;7.956;2023-09-30T05:07:55;102083.22;;;11.30;100.00
5574;BME280;2563;52.242;7.956;2023-09-30T05:10:23;102083.19;;;11.32;100.00
5574;BME280;2563;52.242;7.956;2023-09-30T05:12:49;102080.59;;;11.35;100.00
5574;BME280;2563;52.242;7.956;2023-09-30T05:15:15;102074.59;;;11.36;100.00
5574;BME280;2563;52.242;7.956;2023-09-30T05:17:44;102073.69;;;11.43;100.00
5574;BME280;2563;52.242;7.956;2023-09-30T05:20:10;102066.81;;;11.45;100.00
5574;BME280;2563;52.242;7.956;2023-09-30T05:22:37;102072.81;;;11.53;100.00
5574;BME280;2563;52.242;7.956;2023-09-30T05:25:07;102060.81;;;11.47;100.00
5574;BME280;2563;52.242;7.956;2023-09-30T05:27:32;102053.91;;;11.51;100.00
5574;BME280;2563;52.242;7.956;2023-09-30T05:29:58;102059.91;;;11.52;100.00
5574;BME280;2563;52.242;7.956;2023-09-30T05:32:23;102049.63;;;11.50;100.00
5574;BME280;2563;52.242;7.956;2023-09-30T05:34:51;102022.97;;;11.48;100.00
5574;BME280;2563;52.242;7.956;2023-09-30T05:37:18;102026.41;;;11.50;100.00
5574;BME280;2563;52.242;7.956;2023-09-30T05:39:47;102022.13;;;11.47;100.00
5574;BME280;2563;52.242;7.956;2023-09-30T05:42:14;102005.81;;;11.41;100.00
5574;BME280;2563;52.242;7.956;2023-09-30T05:44:40;101999.78;;;11.42;100.00
5574;BME280;2563;52.242;7.956;2023-09-30T05:47:05;101998.91;;;11.46;100.00
5574;BME280;2563;52.242;7.956;2023-09-30T05:49:30;101986.00;;;11.46;100.00
5574;BME280;2563;52.242;7.956;2023-09-30T05:51:56;101973.13;;;11.41;100.00
5574;BME280;2563;52.242;7.956;2023-09-30T05:54:21;101968.88;;;11.40;100.00
5574;BME280;2563;52.242;7.956;2023-09-30T05:56:47;101968.88;;;11.40;100.00
5574;BME280;2563;52.242;7.956;2023-09-30T05:59:14;101953.38;;;11.42;100.00
5574;BME280;2563;52.242;7.956;2023-09-30T06:01:39;101941.34;;;11.42;100.00
5574;BME280;2563;52.242;7.956;2023-09-30T06:04:06;101930.19;;;11.40;100.00
5574;BME280;2563;52.242;7.956;2023-09-30T06:06:32;101922.44;;;11.37;100.00
5574;BME280;2563;52.242;7.956;2023-09-30T06:08:58;101918.16;;;11.41;100.00
5574;BME280;2563;52.242;7.956;2023-09-30T06:11:23;101913.00;;;11.39;100.00
5574;BME280;2563;52.242;7.956;2023-09-30T06:13:52;101919.84;;;11.43;100.00
5574;BME280;2563;52.242;7.956;2023-09-30T06:16:20;101909.50;;;11.53;100.00
5574;BME280;2563;52.242;7.956;2023-09-30T06:18:46;101893.09;;;11.60;100.00
5574;BME280;2563;52.242;7.956;2023-09-30T06:21:13;101879.28;;;11.70;100.00
5574;BME280;2563;52.242;7.956;2023-09-30T06:23:40;101852.47;;;11.89;100.00
5574;BME280;2563;52.242;7.956;2023-09-30T06:26:06;101805.44;;;13.13;100.00
5574;BME280;2563;52.242;7.956;2023-09-30T06:28:31;101649.34;;;14.10;100.00
5574;BME280;2563;52.242;7.956;2023-09-30T06:30:59;101520.59;;;15.20;100.00
5574;BME280;2563;52.242;7.956;2023-09-30T06:33:25;101433.94;;;16.11;100.00
5574;BME280;2563;52.242;7.956;2023-09-30T06:35:54;101383.66;;;16.37;100.00
5574;BME280;2563;52.242;7.956;2023-09-30T06:38:20;101394.50;;;15.16;100.00
5574;BME280;2563;52.242;7.956;2023-09-30T06:40:46;101384.41;;;16.16;100.00
5574;BME280;2563;52.242;7.956;2023-09-30T06:43:15;101339.59;;;17.29;100.00
5574;BME280;2563;52.242;7.956;2023-09-30T06:45:41;101309.09;;;17.95;100.00
5574;BME280;2563;52.242;7.956;2023-09-30T06:48:08;101304.13;;;18.10;100.00
5574;BME280;2563;52.242;7.956;2023-09-30T06:50:47;101326.38;;;17.76;100.00
5574;BME280;2563;52.242;7.956;2023-09-30T06:53:17;101346.41;;;18.16;100.00
5574;BME280;2563;52.242;7.956;2023-09-30T06:55:44;101398.97;;;18.26;100.00
5574;BME280;2563;52.242;7.956;2023-09-30T06:58:09;101451.88;;;19.27;100.00
5574;BME280;2563;52.242;7.956;2023-09-30T07:00:40;101524.53;;;19.18;100.00
5574;BME280;2563;52.242;7.956;2023-09-30T07:03:05;101587.78;;;18.83;100.00
5574;BME280;2563;52.242;7.956;2023-09-30T07:05:31;101605.19;;;19.44;100.00
5574;BME280;2563;52.242;7.956;2023-09-30T07:07:56;101617.19;;;19.67;100.00
5574;BME280;2563;52.242;7.956;2023-09-30T07:10:22;101628.53;;;19.87;100.00
5574;BME280;2563;52.242;7.956;2023-09-30T07:12:47;101579.31;;;19.96;100.00
5574;BME280;2563;52.242;7.956;2023-09-30T07:15:13;101607.50;;;19.90;100.00
5574;BME280;2563;52.242;7.956;2023-09-30T07:17:41;101586.25;;;20.34;100.00
5574;BME280;2563;52.242;7.956;2023-09-30T07:20:07;101496.88;;;20.43;100.00
5574;BME280;2563;52.242;7.956;2023-09-30T07:22:35;101418.25;;;21.13;100.00
5574;BME280;2563;52.242;7.956;2023-09-30T07:25:01;101320.28;;;20.69;100.00
5574;BME280;2563;52.242;7.956;2023-09-30T07:27:26;101260.00;;;20.87;100.00
5574;BME280;2563;52.242;7.956;2023-09-30T07:29:51;101195.66;;;20.98;100.00
5574;BME280;2563;52.242;7.956;2023-09-30T07:32:17;101134.19;;;21.34;100.00
5574;BME280;2563;52.242;7.956;2023-09-30T07:34:42;101082.97;;;21.59;100.00
5574;BME280;2563;52.242;7.956;2023-09-30T07:37:08;101028.88;;;21.58;100.00
5574;BME280;2563;52.242;7.956;2023-09-30T07:39:35;100999.22;;;22.12;100.00
5574;BME280;2563;52.242;7.956;2023-09-30T07:42:01;100977.81;;;21.51;100.00
5574;BME280;2563;52.242;7.956;2023-09-30T07:44:26;100965.19;;;21.97;100.00
5574;BME280;2563;52.242;7.956;2023-09-30T07:46:52;100965.88;;;20.89;100.00
5574;BME280;2563;52.242;7.956;2023-09-30T07:49:17;100979.66;;;21.63;100.00
5574;BME280;2563;52.242;7.956;2023-09-30T07:51:42;100972.22;;;21.42;100.00
5574;BME280;2563;52.242;7.956;2023-09-30T07:54:08;100994.91;;;21.56;100.00
5574;BME280;2563;52.242;7.956;2023-09-30T07:56:33;101009.72;;;21.29;100.00
5574;BME280;2563;52.242;7.956;2023-09-30T07:58:59;101025.53;;;21.27;100.00
5574;BME280;2563;52.242;7.956;2023-09-30T08:01:24;101025.44;;;21.29;100.00
5574;BME280;2563;52.242;7.956;2023-09-30T08:03:50;101018.03;;;21.35;100.00
5574;BME280;2563;52.242;7.956;2023-09-30T08:06:15;100988.19;;;22.06;100.00
5574;BME280;2563;52.242;7.956;2023-09-30T08:08:41;100981.94;;;21.82;100.00
5574;BME280;2563;52.242;7.956;2023-09-30T08:11:06;100949.59;;;21.96;100.00
5574;BME280;2563;52.242;7.956;2023-09-30T08:13:35;100937.41;;;21.26;100.00
5574;BME280;2563;52.242;7.956;2023-09-30T08:16:00;100953.63;;;21.04;100.00
5574;BME280;2563;52.242;7.956;2023-09-30T08:18:25;100954.81;;;21.27;100.00
5574;BME280;2563;52.242;7.956;2023-09-30T08:20:51;100975.13;;;20.36;100.00
5574;BME280;2563;52.242;7.956;2023-09-30T08:23:16;100984.91;;;20.63;100.00
5574;BME280;2563;52.242;7.956;2023-09-30T08:25:42;101003.78;;;20.07;100.00
5574;BME280;2563;52.242;7.956;2023-09-30T08:28:07;101023.91;;;20.51;100.00
5574;BME280;2563;52.242;7.956;2023-09-30T08:30:34;101019.69;;;20.49;100.00
5574;BME280;2563;52.242;7.956;2023-09-30T08:33:00;101031.81;;;20.66;100.00
5574;BME280;2563;52.242;7.956;2023-09-30T08:35:25;101019.50;;;20.68;100.00
5574;BME280;2563;52.242;7.956;2023-09-30T08:37:50;101021.31;;;20.05;100.00
5574;BME280;2563;52.242;7.956;2023-09-30T08:40:22;101012.94;;;20.45;100.00
5574;BME280;2563;52.242;7.956;2023-09-30T08:42:52;101006.19;;;20.56;100.00
5574;BME280;2563;52.242;7.956;2023-09-30T08:45:18;101002.81;;;20.54;100.00
5574;BME280;2563;52.242;7.956;2023-09-30T08:47:45;100999.53;;;20.81;100.00
5574;BME280;2563;52.242;7.956;2023-09-30T08:50:11;100990.25;;;20.75;100.00
5574;BME280;2563;52.242;7.956;2023-09-30T08:52:41;100998.19;;;20.59;100.00
5574;BME280;2563;52.242;7.956;2023-09-30T08:55:09;100986.25;;;20.98;100.00
5574;BME280;2563;52.242;7.956;2023-09-30T08:57:40;100977.56;;;21.12;100.00
5574;BME280;2563;52.242;7.956;2023-09-30T09:00:07;100965.09;;;21.30;100.00
5574;BME280;2563;52.242;7.956;2023-09-30T09:02:36;100971.66;;;20.66;100.00
5574;BME280;2563;52.242;7.956;2023-09-30T09:05:02;100988.66;;;20.28;100.00
5574;BME280;2563;52.242;7.956;2023-09-30T09:07:28;100972.78;;;21.04;100.00
5574;BME280;2563;52.242;7.956;2023-09-30T09:10:08;100981.09;;;20.38;100.00
5574;BME280;2563;52.242;7.956;2023-09-30T09:12:35;101008.16;;;19.59;100.00
5574;BME280;2563;52.242;7.956;2023-09-30T09:15:02;101023.53;;;19.97;100.00
5574;BME280;2563;52.242;7.956;2023-09-30T09:17:44;101034.09;;;19.62;100.00
5574;BME280;2563;52.242;7.956;2023-09-30T09:20:11;101044.16;;;19.54;100.00
5574;BME280;2563;52.242;7.956;2023-09-30T09:22:43;101049.63;;;20.13;100.00
5574;BME280;2563;52.242;7.956;2023-09-30T09:25:09;101051.13;;;20.93;100.00
5574;BME280;2563;52.242;7.956;2023-09-30T09:27:35;101035.72;;;21.17;100.00
5574;BME280;2563;52.242;7.956;2023-09-30T09:30:23;100995.97;;;22.35;100.00
5574;BME280;2563;52.242;7.956;2023-09-30T09:35:21;100955.16;;;22.04;100.00
5574;BME280;2563;52.242;7.956;2023-09-30T09:38:00;100944.25;;;21.70;100.00
5574;BME280;2563;52.242;7.956;2023-09-30T09:40:31;100904.78;;;22.51;100.00
5574;BME280;2563;52.242;7.956;2023-09-30T09:42:57;100908.56;;;21.95;100.00
5574;BME280;2563;52.242;7.956;2023-09-30T09:45:25;100924.78;;;21.74;100.00
5574;BME280;2563;52.242;7.956;2023-09-30T09:47:55;100928.25;;;21.75;100.00
5574;BME280;2563;52.242;7.956;2023-09-30T09:50:22;100911.41;;;22.32;100.00
5574;BME280;2563;52.242;7.956;2023-09-30T09:52:49;100906.03;;;21.93;100.00
5574;BME280;2563;52.242;7.956;2023-09-30T09:55:19;100895.97;;;22.27;100.00
5574;BME280;2563;52.242;7.956;2023-09-30T09:57:46;100886.19;;;22.29;100.00
5574;BME280;2563;52.242;7.956;2023-09-30T10:00:15;100872.94;;;22.82;100.00
5574;BME280;2563;52.242;7.956;2023-09-30T10:02:41;100892.81;;;22.22;100.00
5574;BME280;2563;52.242;7.956;2023-09-30T10:05:07;100881.28;;;23.12;100.00
5574;BME280;2563;52.242;7.956;2023-09-30T10:07:36;100900.03;;;22.18;100.00
5574;BME280;2563;52.242;7.956;2023-09-30T10:10:05;100886.72;;;22.21;100.00
5574;BME280;2563;52.242;7.956;2023-09-30T10:12:38;100909.63;;;21.92;100.00
5574;BME280;2563;52.242;7.956;2023-09-30T10:18:01;100887.88;;;22.68;100.00
5574;BME280;2563;52.242;7.956;2023-09-30T10:20:39;100883.75;;;22.90;100.00
5574;BME280;2563;52.242;7.956;2023-09-30T10:23:28;100911.19;;;22.35;100.00
5574;BME280;2563;52.242;7.956;2023-09-30T10:31:17;100914.31;;;21.74;100.00
5574;BME280;2563;52.242;7.956;2023-09-30T10:36:39;100930.03;;;21.74;100.00
5574;BME280;2563;52.242;7.956;2023-09-30T10:39:06;100923.78;;;22.02;100.00
5574;BME280;2563;52.242;7.956;2023-09-30T10:46:58;100920.84;;;22.34;100.00
5574;BME280;2563;52.242;7.956;2023-09-30T10:51:56;100951.03;;;21.87;100.00
5574;BME280;2563;52.242;7.956;2023-09-30T10:54:27;100980.47;;;21.08;100.00
5574;BME280;2563;52.242;7.956;2023-09-30T10:56:53;100976.03;;;21.37;100.00
5574;BME280;2563;52.242;7.956;2023-09-30T10:59:19;100964.75;;;21.91;100.00
5574;BME280;2563;52.242;7.956;2023-09-30T11:01:45;100938.25;;;22.99;100.00
5574;BME280;2563;52.242;7.956;2023-09-30T11:04:11;100927.38;;;23.53;100.00
5574;BME280;2563;52.242;7.956;2023-09-30T11:06:40;100954.09;;;22.59;100.00
5574;BME280;2563;52.242;7.956;2023-09-30T11:09:06;100933.75;;;23.38;100.00
5574;BME280;2563;52.242;7.956;2023-09-30T11:13:59;100779.63;;;23.50;100.00
5574;BME280;2563;52.242;7.956;2023-09-30T11:16:25;100553.28;;;23.43;100.00
5574;BME280;2563;52.242;7.956;2023-09-30T11:18:53;100563.56;;;23.24;100.00
5574;BME280;2563;52.242;7.956;2023-09-30T11:21:19;100636.06;;;22.43;100.00
5574;BME280;2563;52.242;7.956;2023-09-30T11:23:45;100647.38;;;22.91;100.00
5574;BME280;2563;52.242;7.956;2023-09-30T11:26:10;100640.94;;;23.65;100.00
5574;BME280;2563;52.242;7.956;2023-09-30T11:28:40;100727.25;;;23.82;100.00
5574;BME280;2563;52.242;7.956;2023-09-30T11:31:08;100849.69;;;22.26;100.00
5574;BME280;2563;52.242;7.956;2023-09-30T11:33:52;100868.94;;;23.02;100.00
5574;BME280;2563;52.242;7.956;2023-09-30T11:36:20;100915.38;;;22.24;100.00
5574;BME280;2563;52.242;7.956;2023-09-30T11:38:47;100859.88;;;22.93;100.00
5574;BME280;2563;52.242;7.956;2023-09-30T11:41:13;100850.03;;;24.15;100.00
5574;BME280;2563;52.242;7.956;2023-09-30T11:43:39;100933.66;;;24.34;100.00
5574;BME280;2563;52.242;7.956;2023-09-30T11:46:10;101017.41;;;24.76;100.00
5574;BME280;2563;52.242;7.956;2023-09-30T11:48:55;101117.84;;;24.34;100.00
5574;BME280;2563;52.242;7.956;2023-09-30T11:51:21;101193.75;;;24.40;100.00
5574;BME280;2563;52.242;7.956;2023-09-30T11:53:49;101205.63;;;24.70;100.00
5574;BME280;2563;52.242;7.956;2023-09-30T11:56:15;101201.19;;;25.30;100.00
5574;BME280;2563;52.242;7.956;2023-09-30T11:58:41;101278.03;;;24.65;100.00
5574;BME280;2563;52.242;7.956;2023-09-30T12:01:06;101303.38;;;25.27;100.00
5574;BME280;2563;52.242;7.956;2023-09-30T12:03:32;101360.38;;;23.90;100.00
5574;BME280;2563;52.242;7.956;2023-09-30T12:06:02;101352.44;;;24.79;100.00
5574;BME280;2563;52.242;7.956;2023-09-30T12:08:27;101382.69;;;24.61;100.00
5574;BME280;2563;52.242;7.956;2023-09-30T12:10:54;101400.13;;;24.88;100.00
5574;BME280;2563;52.242;7.956;2023-09-30T12:13:21;101408.41;;;25.07;100.00
5574;BME280;2563;52.242;7.956;2023-09-30T12:15:46;101435.56;;;24.45;100.00
5574;BME280;2563;52.242;7.956;2023-09-30T12:18:11;101468.09;;;22.94;100.00
5574;BME280;2563;52.242;7.956;2023-09-30T12:20:39;101431.63;;;22.16;100.00
5574;BME280;2563;52.242;7.956;2023-09-30T12:23:06;101370.97;;;21.92;100.00
5574;BME280;2563;52.242;7.956;2023-09-30T12:25:32;101296.38;;;21.37;100.00
5574;BME280;2563;52.242;7.956;2023-09-30T12:27:58;101240.41;;;20.94;100.00
5574;BME280;2563;52.242;7.956;2023-09-30T12:30:24;101205.53;;;20.93;100.00
5574;BME280;2563;52.242;7.956;2023-09-30T12:32:49;101209.31;;;21.03;100.00
5574;BME280;2563;52.242;7.956;2023-09-30T12:35:15;101168.50;;;21.74;100.00
5574;BME280;2563;52.242;7.956;2023-09-30T12:37:40;101229.09;;;22.81;100.00
5574;BME280;2563;52.242;7.956;2023-09-30T12:40:08;101320.13;;;22.81;100.00
5574;BME280;2563;52.242;7.956;2023-09-30T12:42:36;101327.13;;;23.76;100.00
5574;BME280;2563;52.242;7.956;2023-09-30T12:45:02;101365.41;;;23.80;100.00
5574;BME280;2563;52.242;7.956;2023-09-30T12:47:28;101407.72;;;23.63;100.00
5574;BME280;2563;52.242;7.956;2023-09-30T12:49:53;101435.78;;;23.35;100.00
5574;BME280;2563;52.242;7.956;2023-09-30T12:52:20;101433.28;;;22.62;100.00
5574;BME280;2563;52.242;7.956;2023-09-30T12:54:46;101397.06;;;23.51;100.00
5574;BME280;2563;52.242;7.956;2023-09-30T12:57:13;101430.00;;;23.30;100.00
5574;BME280;2563;52.242;7.956;2023-09-30T12:59:43;101438.72;;;23.57;100.00
5574;BME280;2563;52.242;7.956;2023-09-30T13:02:09;101474.44;;;23.74;100.00
5574;BME280;2563;52.242;7.956;2023-09-30T13:04:35;101482.75;;;23.54;100.00
5574;BME280;2563;52.242;7.956;2023-09-30T13:07:00;101451.59;;;24.55;100.00
5574;BME280;2563;52.242;7.956;2023-09-30T13:09:25;101492.13;;;24.12;100.00
5574;BME280;2563;52.242;7.956;2023-09-30T13:11:51;101494.06;;;24.23;100.00
5574;BME280;2563;52.242;7.956;2023-09-30T13:14:16;101530.31;;;23.78;100.00
5574;BME280;2563;52.242;7.956;2023-09-30T13:16:43;101538.09;;;23.09;100.00
5574;BME280;2563;52.242;7.956;2023-09-30T13:19:09;101508.59;;;23.33;100.00
5574;BME280;2563;52.242;7.956;2023-09-30T13:21:34;101517.06;;;23.09;100.00